sensor_id;sensor_type;location;lat;lon;timestamp;temperature;humidity
6879;DHT22;3478;51.462;7.338;2022-10-16T00:00:19;14.00;99.90
6879;DHT22;3478;51.462;7.338;2022-10-16T00:05:21;14.00;99.90
6879;DHT22;3478;51.462;7.338;2022-10-16T00:10:24;13.90;99.90
6879;DHT22;3478;51.462;7.338;2022-10-16T00:15:26;13.90;99.90
6879;DHT22;3478;51.462;7.338;2022-10-16T00:20:28;13.90;99.90
6879;DHT22;3478;51.462;7.338;2022-10-16T00:25:33;13.90;99.90
6879;DHT22;3478;51.462;7.338;2022-10-16T00:30:37;13.80;99.90
6879;DHT22;3478;51.462;7.338;2022-10-16T00:35:39;13.80;99.90
6879;DHT22;3478;51.462;7.338;2022-10-16T00:40:42;13.80;99.90
6879;DHT22;3478;51.462;7.338;2022-10-16T00:45:45;13.90;99.90
6879;DHT22;3478;51.462;7.338;2022-10-16T00:50:46;13.90;99.90
6879;DHT22;3478;51.462;7.338;2022-10-16T00:55:50;14.00;99.90
6879;DHT22;3478;51.462;7.338;2022-10-16T01:00:52;14.00;99.90
6879;DHT22;3478;51.462;7.338;2022-10-16T01:06:06;13.90;99.90
6879;DHT22;3478;51.462;7.338;2022-10-16T01:11:22;14.00;99.90
6879;DHT22;3478;51.462;7.338;2022-10-16T01:16:31;13.90;99.90
6879;DHT22;3478;51.462;7.338;2022-10-16T01:21:40;13.90;99.90
6879;DHT22;3478;51.462;7.338;2022-10-16T01:27:10;13.90;99.90
6879;DHT22;3478;51.462;7.338;2022-10-16T01:32:17;13.80;99.90
6879;DHT22;3478;51.462;7.338;2022-10-16T01:37:29;13.80;99.90
6879;DHT22;3478;51.462;7.338;2022-10-16T01:42:37;13.80;99.90
6879;DHT22;3478;51.462;7.338;2022-10-16T01:47:40;13.80;99.90
6879;DHT22;3478;51.462;7.338;2022-10-16T01:52:46;13.80;99.90
6879;DHT22;3478;51.462;7.338;2022-10-16T01:57:51;13.80;99.90
6879;DHT22;3478;51.462;7.338;2022-10-16T02:02:55;13.80;99.90
6879;DHT22;3478;51.462;7.338;2022-10-16T02:07:58;13.80;99.90
6879;DHT22;3478;51.462;7.338;2022-10-16T02:13:05;13.80;99.90
6879;DHT22;3478;51.462;7.338;2022-10-16T02:18:09;13.70;99.90
6879;DHT22;3478;51.462;7.338;2022-10-16T02:23:17;13.70;99.90
6879;DHT22;3478;51.462;7.338;2022-10-16T02:28:26;13.60;99.90
6879;DHT22;3478;51.462;7.338;2022-10-16T02:33:31;13.60;99.90
6879;DHT22;3478;51.462;7.338;2022-10-16T02:38:34;13.60;99.90
6879;DHT22;3478;51.462;7.338;2022-10-16T02:43:38;13.50;99.90
6879;DHT22;3478;51.462;7.338;2022-10-16T02:48:40;13.50;99.90
6879;DHT22;3478;51.462;7.338;2022-10-16T02:53:42;13.50;99.90
6879;DHT22;3478;51.462;7.338;2022-10-16T02:58:45;13.50;99.90
6879;DHT22;3478;51.462;7.338;2022-10-16T03:03:47;13.50;99.90
6879;DHT22;3478;51.462;7.338;2022-10-16T03:08:49;13.50;99.90
6879;DHT22;3478;51.462;7.338;2022-10-16T03:13:52;13.60;99.90
6879;DHT22;3478;51.462;7.338;2022-10-16T03:18:54;13.60;99.90
6879;DHT22;3478;51.462;7.338;2022-10-16T03:23:56;13.60;99.90
6879;DHT22;3478;51.462;7.338;2022-10-16T03:28:59;13.70;99.90
6879;DHT22;3478;51.462;7.338;2022-10-16T03:34:03;13.70;99.90
6879;DHT22;3478;51.462;7.338;2022-10-16T03:39:04;13.70;99.90
6879;DHT22;3478;51.462;7.338;2022-10-16T03:44:08;13.70;99.90
6879;DHT22;3478;51.462;7.338;2022-10-16T03:49:10;13.70;99.90
6879;DHT22;3478;51.462;7.338;2022-10-16T03:54:12;13.70;99.90
6879;DHT22;3478;51.462;7.338;2022-10-16T03:59:15;13.70;99.90
6879;DHT22;3478;51.462;7.338;2022-10-16T04:04:17;13.70;99.90
6879;DHT22;3478;51.462;7.338;2022-10-16T04:09:19;13.60;99.90
6879;DHT22;3478;51.462;7.338;2022-10-16T04:14:22;13.60;99.90
6879;DHT22;3478;51.462;7.338;2022-10-16T04:19:24;13.50;99.90
6879;DHT22;3478;51.462;7.338;2022-10-16T04:24:26;13.50;99.90
6879;DHT22;3478;51.462;7.338;2022-10-16T04:29:29;13.50;99.90
6879;DHT22;3478;51.462;7.338;2022-10-16T04:34:31;13.40;99.90
6879;DHT22;3478;51.462;7.338;2022-10-16T04:39:33;13.40;99.90
6879;DHT22;3478;51.462;7.338;2022-10-16T04:44:36;13.40;99.90
6879;DHT22;3478;51.462;7.338;2022-10-16T04:49:38;13.40;99.90
6879;DHT22;3478;51.462;7.338;2022-10-16T04:54:40;13.40;99.90
6879;DHT22;3478;51.462;7.338;2022-10-16T04:59:43;13.40;99.90
6879;DHT22;3478;51.462;7.338;2022-10-16T05:04:45;13.40;99.90
6879;DHT22;3478;51.462;7.338;2022-10-16T05:09:47;13.40;99.90
6879;DHT22;3478;51.462;7.338;2022-10-16T05:14:50;13.40;99.90
6879;DHT22;3478;51.462;7.338;2022-10-16T05:19:52;13.40;99.90
6879;DHT22;3478;51.462;7.338;2022-10-16T05:24:54;13.40;99.90
6879;DHT22;3478;51.462;7.338;2022-10-16T05:29:57;13.40;99.90
6879;DHT22;3478;51.462;7.338;2022-10-16T05:34:59;13.40;99.90
6879;DHT22;3478;51.462;7.338;2022-10-16T05:40:01;13.40;99.90
6879;DHT22;3478;51.462;7.338;2022-10-16T05:45:10;13.40;99.90
6879;DHT22;3478;51.462;7.338;2022-10-16T05:50:11;13.40;99.90
6879;DHT22;3478;51.462;7.338;2022-10-16T05:55:13;13.40;99.90
6879;DHT22;3478;51.462;7.338;2022-10-16T06:00:17;13.40;99.90
6879;DHT22;3478;51.462;7.338;2022-10-16T06:05:19;13.40;99.90
6879;DHT22;3478;51.462;7.338;2022-10-16T06:10:21;13.40;99.90
6879;DHT22;3478;51.462;7.338;2022-10-16T06:15:24;13.40;99.90
6879;DHT22;3478;51.462;7.338;2022-10-16T06:20:26;13.40;99.90
6879;DHT22;3478;51.462;7.338;2022-10-16T06:25:28;13.40;99.90
6879;DHT22;3478;51.462;7.338;2022-10-16T06:30:31;13.50;99.90
6879;DHT22;3478;51.462;7.338;2022-10-16T06:35:33;13.50;99.90
6879;DHT22;3478;51.462;7.338;2022-10-16T06:40:35;13.50;99.90
6879;DHT22;3478;51.462;7.338;2022-10-16T06:45:38;13.60;99.90
6879;DHT22;3478;51.462;7.338;2022-10-16T06:50:40;13.60;99.90
6879;DHT22;3478;51.462;7.338;2022-10-16T06:55:42;13.60;99.90
6879;DHT22;3478;51.462;7.338;2022-10-16T07:00:45;13.70;99.90
6879;DHT22;3478;51.462;7.338;2022-10-16T07:05:47;13.70;99.90
6879;DHT22;3478;51.462;7.338;2022-10-16T07:10:58;13.80;99.90
6879;DHT22;3478;51.462;7.338;2022-10-16T07:16:05;13.90;99.90
6879;DHT22;3478;51.462;7.338;2022-10-16T07:21:10;14.00;99.90
6879;DHT22;3478;51.462;7.338;2022-10-16T07:26:12;14.00;99.90
6879;DHT22;3478;51.462;7.338;2022-10-16T07:31:18;14.00;99.90
6879;DHT22;3478;51.462;7.338;2022-10-16T07:36:21;14.00;99.90
6879;DHT22;3478;51.462;7.338;2022-10-16T07:41:23;14.00;99.90
6879;DHT22;3478;51.462;7.338;2022-10-16T07:46:26;14.00;99.90
6879;DHT22;3478;51.462;7.338;2022-10-16T07:51:28;14.00;99.90
6879;DHT22;3478;51.462;7.338;2022-10-16T07:56:31;14.00;99.90
6879;DHT22;3478;51.462;7.338;2022-10-16T08:01:34;14.10;99.90
6879;DHT22;3478;51.462;7.338;2022-10-16T08:06:37;14.30;99.90
6879;DHT22;3478;51.462;7.338;2022-10-16T08:11:39;14.50;99.90
6879;DHT22;3478;51.462;7.338;2022-10-16T08:16:43;14.70;99.90
6879;DHT22;3478;51.462;7.338;2022-10-16T08:21:47;14.90;99.90
6879;DHT22;3478;51.462;7.338;2022-10-16T08:26:49;15.10;99.90
6879;DHT22;3478;51.462;7.338;2022-10-16T08:31:52;15.30;99.90
6879;DHT22;3478;51.462;7.338;2022-10-16T08:36:54;15.40;99.90
6879;DHT22;3478;51.462;7.338;2022-10-16T08:42:16;15.50;99.90
6879;DHT22;3478;51.462;7.338;2022-10-16T08:47:26;15.60;99.90
6879;DHT22;3478;51.462;7.338;2022-10-16T08:52:30;15.70;99.90
6879;DHT22;3478;51.462;7.338;2022-10-16T08:57:34;15.80;99.90
6879;DHT22;3478;51.462;7.338;2022-10-16T09:02:39;15.90;99.90
6879;DHT22;3478;51.462;7.338;2022-10-16T09:07:47;16.00;99.90
6879;DHT22;3478;51.462;7.338;2022-10-16T09:12:56;16.10;99.90
6879;DHT22;3478;51.462;7.338;2022-10-16T09:18:06;16.20;99.90
6879;DHT22;3478;51.462;7.338;2022-10-16T09:23:16;16.30;99.90
6879;DHT22;3478;51.462;7.338;2022-10-16T09:28:19;16.40;99.90
6879;DHT22;3478;51.462;7.338;2022-10-16T09:33:24;16.60;99.90
6879;DHT22;3478;51.462;7.338;2022-10-16T09:38:29;16.70;99.90
6879;DHT22;3478;51.462;7.338;2022-10-16T09:43:35;16.90;99.90
6879;DHT22;3478;51.462;7.338;2022-10-16T09:48:48;17.00;99.90
6879;DHT22;3478;51.462;7.338;2022-10-16T09:53:55;17.00;99.90
6879;DHT22;3478;51.462;7.338;2022-10-16T09:58:59;16.90;99.90
6879;DHT22;3478;51.462;7.338;2022-10-16T10:04:03;16.90;99.90
6879;DHT22;3478;51.462;7.338;2022-10-16T10:09:15;16.90;99.90
6879;DHT22;3478;51.462;7.338;2022-10-16T10:14:25;17.20;99.90
6879;DHT22;3478;51.462;7.338;2022-10-16T10:19:37;17.20;99.90
6879;DHT22;3478;51.462;7.338;2022-10-16T10:24:39;17.20;99.90
6879;DHT22;3478;51.462;7.338;2022-10-16T10:29:49;17.20;99.90
6879;DHT22;3478;51.462;7.338;2022-10-16T10:35:07;17.00;99.90
6879;DHT22;3478;51.462;7.338;2022-10-16T10:40:22;16.80;99.90
6879;DHT22;3478;51.462;7.338;2022-10-16T10:45:38;16.80;99.90
6879;DHT22;3478;51.462;7.338;2022-10-16T10:50:48;17.00;99.90
6879;DHT22;3478;51.462;7.338;2022-10-16T10:55:54;17.20;99.90
6879;DHT22;3478;51.462;7.338;2022-10-16T11:01:01;17.40;99.90
6879;DHT22;3478;51.462;7.338;2022-10-16T11:06:12;17.50;99.90
6879;DHT22;3478;51.462;7.338;2022-10-16T11:11:20;17.90;99.90
6879;DHT22;3478;51.462;7.338;2022-10-16T11:16:28;18.20;99.90
6879;DHT22;3478;51.462;7.338;2022-10-16T11:21:36;19.10;99.90
6879;DHT22;3478;51.462;7.338;2022-10-16T11:26:42;20.80;99.90
6879;DHT22;3478;51.462;7.338;2022-10-16T11:31:48;22.30;99.90
6879;DHT22;3478;51.462;7.338;2022-10-16T11:36:56;22.70;99.90
6879;DHT22;3478;51.462;7.338;2022-10-16T11:42:04;22.80;99.90
6879;DHT22;3478;51.462;7.338;2022-10-16T11:47:23;23.10;99.90
6879;DHT22;3478;51.462;7.338;2022-10-16T11:52:30;22.70;99.90
6879;DHT22;3478;51.462;7.338;2022-10-16T11:57:39;21.60;99.90
6879;DHT22;3478;51.462;7.338;2022-10-16T12:02:52;21.30;99.90
6879;DHT22;3478;51.462;7.338;2022-10-16T12:08:05;22.60;99.90
6879;DHT22;3478;51.462;7.338;2022-10-16T12:13:30;23.80;99.90
6879;DHT22;3478;51.462;7.338;2022-10-16T12:18:32;24.30;99.90
6879;DHT22;3478;51.462;7.338;2022-10-16T12:23:39;25.50;97.30
6879;DHT22;3478;51.462;7.338;2022-10-16T12:28:48;26.70;93.70
6879;DHT22;3478;51.462;7.338;2022-10-16T12:33:57;26.10;92.90
6879;DHT22;3478;51.462;7.338;2022-10-16T12:39:01;24.50;95.00
6879;DHT22;3478;51.462;7.338;2022-10-16T12:44:03;23.60;96.70
6879;DHT22;3478;51.462;7.338;2022-10-16T12:49:22;23.70;98.20
6879;DHT22;3478;51.462;7.338;2022-10-16T12:54:28;25.20;96.10
6879;DHT22;3478;51.462;7.338;2022-10-16T12:59:40;24.30;95.90
6879;DHT22;3478;51.462;7.338;2022-10-16T13:04:53;24.10;95.30
6879;DHT22;3478;51.462;7.338;2022-10-16T13:10:08;23.70;96.50
6879;DHT22;3478;51.462;7.338;2022-10-16T13:15:30;22.60;97.10
6879;DHT22;3478;51.462;7.338;2022-10-16T13:20:50;22.00;99.90
6879;DHT22;3478;51.462;7.338;2022-10-16T13:26:05;23.20;99.90
6879;DHT22;3478;51.462;7.338;2022-10-16T13:31:15;25.50;94.50
6879;DHT22;3478;51.462;7.338;2022-10-16T13:36:20;26.90;93.10
6879;DHT22;3478;51.462;7.338;2022-10-16T13:41:24;27.50;86.50
6879;DHT22;3478;51.462;7.338;2022-10-16T13:46:26;25.80;90.50
6879;DHT22;3478;51.462;7.338;2022-10-16T13:51:28;26.70;91.30
6879;DHT22;3478;51.462;7.338;2022-10-16T13:56:32;27.60;85.30
6879;DHT22;3478;51.462;7.338;2022-10-16T14:01:40;27.60;84.30
6879;DHT22;3478;51.462;7.338;2022-10-16T14:06:44;28.10;82.70
6879;DHT22;3478;51.462;7.338;2022-10-16T14:11:50;26.60;81.90
6879;DHT22;3478;51.462;7.338;2022-10-16T14:16:52;25.20;90.20
6879;DHT22;3478;51.462;7.338;2022-10-16T14:21:56;24.50;88.60
6879;DHT22;3478;51.462;7.338;2022-10-16T14:27:00;23.60;91.90
6879;DHT22;3478;51.462;7.338;2022-10-16T14:32:04;23.90;91.60
6879;DHT22;3478;51.462;7.338;2022-10-16T14:37:09;24.00;90.90
6879;DHT22;3478;51.462;7.338;2022-10-16T14:42:16;23.00;93.40
6879;DHT22;3478;51.462;7.338;2022-10-16T14:47:21;22.00;95.90
6879;DHT22;3478;51.462;7.338;2022-10-16T14:52:25;21.20;99.70
6879;DHT22;3478;51.462;7.338;2022-10-16T14:57:31;21.00;99.90
6879;DHT22;3478;51.462;7.338;2022-10-16T15:02:35;21.30;99.90
6879;DHT22;3478;51.462;7.338;2022-10-16T15:07:38;21.30;99.90
6879;DHT22;3478;51.462;7.338;2022-10-16T15:12:41;21.70;99.90
6879;DHT22;3478;51.462;7.338;2022-10-16T15:17:43;21.40;99.90
6879;DHT22;3478;51.462;7.338;2022-10-16T15:22:45;20.50;99.90
6879;DHT22;3478;51.462;7.338;2022-10-16T15:27:49;20.00;99.90
6879;DHT22;3478;51.462;7.338;2022-10-16T15:32:50;19.50;99.90
6879;DHT22;3478;51.462;7.338;2022-10-16T15:37:52;19.30;99.90
6879;DHT22;3478;51.462;7.338;2022-10-16T15:42:56;19.20;99.90
6879;DHT22;3478;51.462;7.338;2022-10-16T15:47:57;19.10;99.90
6879;DHT22;3478;51.462;7.338;2022-10-16T15:52:59;19.00;99.90
6879;DHT22;3478;51.462;7.338;2022-10-16T15:58:03;18.80;99.90
6879;DHT22;3478;51.462;7.338;2022-10-16T16:03:05;18.70;99.90
6879;DHT22;3478;51.462;7.338;2022-10-16T16:08:07;18.40;99.90
6879;DHT22;3478;51.462;7.338;2022-10-16T16:13:10;18.10;99.90
6879;DHT22;3478;51.462;7.338;2022-10-16T16:18:12;17.90;99.90
6879;DHT22;3478;51.462;7.338;2022-10-16T16:23:14;17.80;99.90
6879;DHT22;3478;51.462;7.338;2022-10-16T16:28:17;17.70;99.90
6879;DHT22;3478;51.462;7.338;2022-10-16T16:33:19;17.60;99.90
6879;DHT22;3478;51.462;7.338;2022-10-16T16:38:21;17.50;99.90
6879;DHT22;3478;51.462;7.338;2022-10-16T16:43:25;17.50;99.90
6879;DHT22;3478;51.462;7.338;2022-10-16T16:48:27;17.40;99.90
6879;DHT22;3478;51.462;7.338;2022-10-16T16:53:29;17.40;99.90
6879;DHT22;3478;51.462;7.338;2022-10-16T16:58:33;17.30;99.90
6879;DHT22;3478;51.462;7.338;2022-10-16T17:03:35;17.30;99.90
6879;DHT22;3478;51.462;7.338;2022-10-16T17:08:38;17.20;99.90
6879;DHT22;3478;51.462;7.338;2022-10-16T17:13:42;17.20;99.90
6879;DHT22;3478;51.462;7.338;2022-10-16T17:18:43;17.10;99.90
6879;DHT22;3478;51.462;7.338;2022-10-16T17:23:45;17.10;99.90
6879;DHT22;3478;51.462;7.338;2022-10-16T17:28:52;17.10;99.90
6879;DHT22;3478;51.462;7.338;2022-10-16T17:33:54;17.00;99.90
6879;DHT22;3478;51.462;7.338;2022-10-16T17:38:57;16.90;99.90
6879;DHT22;3478;51.462;7.338;2022-10-16T17:44:03;16.90;99.90
6879;DHT22;3478;51.462;7.338;2022-10-16T17:49:05;16.80;99.90
6879;DHT22;3478;51.462;7.338;2022-10-16T17:54:07;16.80;99.90
6879;DHT22;3478;51.462;7.338;2022-10-16T17:59:12;16.70;99.90
6879;DHT22;3478;51.462;7.338;2022-10-16T18:04:15;16.80;99.90
6879;DHT22;3478;51.462;7.338;2022-10-16T18:09:18;16.80;99.90
6879;DHT22;3478;51.462;7.338;2022-10-16T18:14:22;16.80;99.90
6879;DHT22;3478;51.462;7.338;2022-10-16T18:19:25;16.80;99.90
6879;DHT22;3478;51.462;7.338;2022-10-16T18:24:27;16.80;99.90
6879;DHT22;3478;51.462;7.338;2022-10-16T18:29:30;16.80;99.90
6879;DHT22;3478;51.462;7.338;2022-10-16T18:34:33;16.70;99.90
6879;DHT22;3478;51.462;7.338;2022-10-16T18:39:37;16.70;99.90
6879;DHT22;3478;51.462;7.338;2022-10-16T18:44:40;16.70;99.90
6879;DHT22;3478;51.462;7.338;2022-10-16T18:49:42;16.70;99.90
6879;DHT22;3478;51.462;7.338;2022-10-16T18:54:46;16.70;99.90
6879;DHT22;3478;51.462;7.338;2022-10-16T18:59:49;16.60;99.90
6879;DHT22;3478;51.462;7.338;2022-10-16T19:04:51;16.60;99.90
6879;DHT22;3478;51.462;7.338;2022-10-16T19:09:53;16.50;99.90
6879;DHT22;3478;51.462;7.338;2022-10-16T19:14:56;16.60;99.90
6879;DHT22;3478;51.462;7.338;2022-10-16T19:19:58;16.60;99.90
6879;DHT22;3478;51.462;7.338;2022-10-16T19:25:00;16.70;99.90
6879;DHT22;3478;51.462;7.338;2022-10-16T19:30:04;16.80;99.90
6879;DHT22;3478;51.462;7.338;2022-10-16T19:35:07;16.70;99.90
6879;DHT22;3478;51.462;7.338;2022-10-16T19:40:10;16.70;99.90
6879;DHT22;3478;51.462;7.338;2022-10-16T19:45:13;16.60;99.90
6879;DHT22;3478;51.462;7.338;2022-10-16T19:50:15;16.60;99.90
6879;DHT22;3478;51.462;7.338;2022-10-16T19:55:18;16.50;99.90
6879;DHT22;3478;51.462;7.338;2022-10-16T20:00:22;16.50;99.90
6879;DHT22;3478;51.462;7.338;2022-10-16T20:05:24;16.40;99.90
6879;DHT22;3478;51.462;7.338;2022-10-16T20:10:26;16.40;99.90
6879;DHT22;3478;51.462;7.338;2022-10-16T20:15:29;16.30;99.90
6879;DHT22;3478;51.462;7.338;2022-10-16T20:20:31;16.20;99.90
6879;DHT22;3478;51.462;7.338;2022-10-16T20:25:38;16.20;99.90
6879;DHT22;3478;51.462;7.338;2022-10-16T20:30:44;16.20;99.90
6879;DHT22;3478;51.462;7.338;2022-10-16T20:35:48;16.10;99.90
6879;DHT22;3478;51.462;7.338;2022-10-16T20:40:50;16.10;99.90
6879;DHT22;3478;51.462;7.338;2022-10-16T20:45:59;16.00;99.90
6879;DHT22;3478;51.462;7.338;2022-10-16T20:51:10;16.00;99.90
6879;DHT22;3478;51.462;7.338;2022-10-16T20:56:13;15.90;99.90
6879;DHT22;3478;51.462;7.338;2022-10-16T21:01:18;15.90;99.90
6879;DHT22;3478;51.462;7.338;2022-10-16T21:06:20;15.90;99.90
6879;DHT22;3478;51.462;7.338;2022-10-16T21:11:24;15.80;99.90
6879;DHT22;3478;51.462;7.338;2022-10-16T21:16:29;15.80;99.90
6879;DHT22;3478;51.462;7.338;2022-10-16T21:21:33;15.80;99.90
6879;DHT22;3478;51.462;7.338;2022-10-16T21:26:35;15.70;99.90
6879;DHT22;3478;51.462;7.338;2022-10-16T21:31:38;15.70;99.90
6879;DHT22;3478;51.462;7.338;2022-10-16T21:36:41;15.60;99.90
6879;DHT22;3478;51.462;7.338;2022-10-16T21:41:45;15.60;99.90
6879;DHT22;3478;51.462;7.338;2022-10-16T21:46:49;15.50;99.90
6879;DHT22;3478;51.462;7.338;2022-10-16T21:51:51;15.50;99.90
6879;DHT22;3478;51.462;7.338;2022-10-16T21:56:53;15.50;99.90
6879;DHT22;3478;51.462;7.338;2022-10-16T22:01:57;15.40;99.90
6879;DHT22;3478;51.462;7.338;2022-10-16T22:07:02;15.50;99.90
6879;DHT22;3478;51.462;7.338;2022-10-16T22:12:04;15.50;99.90
6879;DHT22;3478;51.462;7.338;2022-10-16T22:17:07;15.60;99.90
6879;DHT22;3478;51.462;7.338;2022-10-16T22:22:09;15.60;99.90
6879;DHT22;3478;51.462;7.338;2022-10-16T22:27:11;15.70;99.90
6879;DHT22;3478;51.462;7.338;2022-10-16T22:32:14;15.70;99.90
6879;DHT22;3478;51.462;7.338;2022-10-16T22:37:16;15.60;99.90
6879;DHT22;3478;51.462;7.338;2022-10-16T22:42:17;15.50;99.90
6879;DHT22;3478;51.462;7.338;2022-10-16T22:47:21;15.40;99.90
6879;DHT22;3478;51.462;7.338;2022-10-16T22:52:23;15.40;99.90
6879;DHT22;3478;51.462;7.338;2022-10-16T22:57:25;15.50;99.90
6879;DHT22;3478;51.462;7.338;2022-10-16T23:02:28;15.50;99.90
6879;DHT22;3478;51.462;7.338;2022-10-16T23:07:30;15.60;99.90
6879;DHT22;3478;51.462;7.338;2022-10-16T23:12:34;15.60;99.90
6879;DHT22;3478;51.462;7.338;2022-10-16T23:17:37;15.60;99.90
6879;DHT22;3478;51.462;7.338;2022-10-16T23:22:39;15.60;99.90
6879;DHT22;3478;51.462;7.338;2022-10-16T23:27:41;15.60;99.90
6879;DHT22;3478;51.462;7.338;2022-10-16T23:32:44;15.60;99.90
6879;DHT22;3478;51.462;7.338;2022-10-16T23:37:46;15.70;99.90
6879;DHT22;3478;51.462;7.338;2022-10-16T23:42:48;15.70;99.90
6879;DHT22;3478;51.462;7.338;2022-10-16T23:47:51;15.70;99.90
6879;DHT22;3478;51.462;7.338;2022-10-16T23:52:53;15.70;99.90
6879;DHT22;3478;51.462;7.338;2022-10-16T23:57:55;15.70;99.90
